Stations météo

réclame
Mon MeteoGroup
Retie, Belgique (6464): Température de l'air & dewpoint: 15.09.2018 10:00:00 - 21.09.2018 10:00:00 (CEST)Retie, Belgique (6464): Vitesse du vent & gusts: 15.09.2018 10:00:00 - 21.09.2018 10:00:00 (CEST)Retie, Belgique (6464): Direction du vent: 15.09.2018 10:00:00 - 21.09.2018 10:00:00 (CEST)Retie, Belgique (6464): reduced air pressure: 15.09.2018 10:00:00 - 21.09.2018 10:00:00 (CEST)Retie, Belgique (6464): Ensoleillement: 15.09.2018 10:00:00 - 21.09.2018 10:00:00 (CEST)Retie, Belgique (6464): Quantités de précipitations: 15.09.2018 10:00:00 - 21.09.2018 10:00:00 (CEST)
Date & Time tt [°C] td [°C] ff [km/h] ff [knt] fx [km/h] fx [knt] dd ppp [hPa] sd [min] rr [mm]
21.09.2018 10:00:00 14,7 11,8 16 9 65 35 WSW 1005,5 0 0,5
21.09.2018 09:00:00 18,0 15,1 22 12 49 26 SW 1003,8 0 0,2
21.09.2018 08:00:00 18,3 13,9 14 8 38 21 SSW 1003,4 0 0,3
21.09.2018 07:00:00 19,2 13,0 21 11 38 20 SSW 1003,3 0 0,1
21.09.2018 06:00:00 19,6 12,7 16 9 34 18 S 1003,3 0 0,0
21.09.2018 05:00:00 19,8 12,9 17 9 31 17 S 1004,3 0 0,0
21.09.2018 04:00:00 19,5 12,7 11 6 21 12 S 1005,8 0 0,0
21.09.2018 03:00:00 19,7 12,7 11 6 23 12 S 1006,9 0 0,0
21.09.2018 02:00:00 19,6 12,7 11 6 19 11 S 1007,7 0 0,0
21.09.2018 01:00:00 19,6 12,6 9 5 20 11 S 1008,7 0 0,0
21.09.2018 00:00:00 19,7 12,5 9 5 16 9 S 1009,4 0 0,0
20.09.2018 23:00:00 20,6 12,8 11 6 21 11 S 1010,2 0 0,0
20.09.2018 22:00:00 21,0 13,0 11 6 17 9 S 1010,9 0 0,0
20.09.2018 21:00:00 21,9 13,1 8 4 16 9 S 1011,7 0 0,0
20.09.2018 20:00:00 22,6 13,2 7 4 18 10 S 1012,0 5 0,0
20.09.2018 19:00:00 24,0 12,8 11 6 29 16 SSW 1012,6 57 0,0
20.09.2018 18:00:00 24,9 12,6 20 11 36 19 S 1013,1 60 0,0
20.09.2018 17:00:00 25,2 12,3 17 9 33 18 SSW 1014,0 60 0,0
20.09.2018 16:00:00 25,0 12,0 18 10 36 19 SSW 1014,9 60 0,0
20.09.2018 15:00:00 24,2 12,5 17 9 34 18 SSW 1015,7 60 0,0
20.09.2018 14:00:00 23,3 13,2 18 10 37 20 SW 1016,3 57 0,0
20.09.2018 13:00:00 23,2 13,7 16 9 35 19 SW 1016,9 47 0,0
20.09.2018 12:00:00 21,3 14,0 15 8 27 15 SSW 1017,3 58 0,0
20.09.2018 11:00:00 20,5 14,6 13 7 27 14 SW 1017,4 60 0,0
20.09.2018 10:00:00 19,2 14,1 12 7 26 14 SW 1017,7 60 0,0
20.09.2018 09:00:00 17,1 13,4 11 6 17 9 SSW 1017,6 58 0,0
20.09.2018 08:00:00 14,4 12,4 4 2 8 4 SSE 1017,4 0 0,0
20.09.2018 07:00:00 14,3 12,2 4 2 8 4 S 1017,5 0 0,0
20.09.2018 06:00:00 13,8 12,2 7 4 10 5 S 1017,5 0 0,0
20.09.2018 05:00:00 13,6 12,0 4 2 5 3 SSW 1017,9 0 0,0
20.09.2018 04:00:00 13,7 11,5 4 2 6 3 SE 1017,8 0 0,0
20.09.2018 03:00:00 16,4 12,3 4 2 9 5 SSE 1017,7 0 0,0
20.09.2018 02:00:00 16,9 12,7 4 2 10 6 SSE 1017,9 0 0,0
20.09.2018 01:00:00 18,5 12,8 5 3 11 6 S 1018,2 0 0,0
20.09.2018 00:00:00 19,7 12,8 8 4 17 9 SSW 1018,7 0 0,0
19.09.2018 23:00:00 20,2 13,0 8 4 13 7 SSW 1018,5 0 0,0
19.09.2018 22:00:00 20,1 13,0 6 4 14 7 SSW 1018,5 0 0,0
19.09.2018 21:00:00 20,2 13,0 6 3 15 8 SSW 1017,9 0 0,0
19.09.2018 20:00:00 21,5 12,7 7 4 24 13 SW 1017,7 0 0,0
19.09.2018 19:00:00 23,1 13,0 8 4 27 15 WSW 1017,3 37 0,0
19.09.2018 18:00:00 24,3 12,3 17 9 29 16 WSW 1016,9 59 0,0
19.09.2018 17:00:00 25,4 12,2 16 8 36 20 SW 1016,7 60 0,0
19.09.2018 16:00:00 25,7 12,1 17 9 37 20 SW 1016,7 60 0,0
19.09.2018 15:00:00 25,3 12,4 17 9 35 19 SW 1016,8 60 0,0
19.09.2018 14:00:00 24,4 12,9 14 8 31 17 SW 1017,1 59 0,0
19.09.2018 13:00:00 23,6 13,0 19 11 32 17 WSW 1017,3 56 0,0
19.09.2018 12:00:00 22,7 14,2 19 10 34 19 SW 1017,4 56 0,0
19.09.2018 11:00:00 21,2 15,0 16 8 29 15 SW 1017,1 60 0,0
19.09.2018 10:00:00 19,7 15,7 11 6 20 11 SSW 1017,1 58 0,0
19.09.2018 09:00:00 17,2 15,2 10 5 16 9 S 1016,6 59 0,0
19.09.2018 08:00:00 15,5 14,2 7 4 11 6 S 1016,6 0 0,0
19.09.2018 07:00:00 14,7 13,3 9 5 14 7 SSE 1016,6 0 0,0
19.09.2018 06:00:00 12,8 12,0 6 4 9 5 SE 1016,7 0 0,0
19.09.2018 05:00:00 13,5 12,4 4 2 6 3 SSE 1017,0 0 0,0
19.09.2018 04:00:00 13,4 12,0 4 2 6 3 SE 1017,0 0 0,0
19.09.2018 03:00:00 13,0 12,1 4 2 6 3 SSE 1017,2 0 0,0
19.09.2018 02:00:00 13,0 11,4 4 2 5 3 SSE 1017,2 0 0,0
19.09.2018 01:00:00 14,8 12,7 4 2 7 4 SSW 1017,1 0 0,0
19.09.2018 00:00:00 15,4 12,7 4 2 6 3 SW 1016,8 0 0,0
18.09.2018 23:00:00 17,4 13,2 4 2 9 5 SW 1016,6 0 0,0
18.09.2018 22:00:00 18,6 13,2 4 2 13 7 WSW 1016,3 0 0,0
18.09.2018 21:00:00 20,0 13,3 4 2 11 6 W 1015,4 0 0,0
18.09.2018 20:00:00 21,5 13,1 7 4 25 13 W 1014,5 16 0,0
18.09.2018 19:00:00 24,2 12,7 16 8 31 17 W 1013,9 60 0,0
18.09.2018 18:00:00 25,7 13,0 16 9 37 20 WSW 1013,6 60 0,0
18.09.2018 17:00:00 26,4 12,7 18 10 36 19 WSW 1013,5 60 0,0
18.09.2018 16:00:00 27,3 11,7 21 11 37 20 WSW 1013,1 60 0,0
18.09.2018 15:00:00 27,7 12,2 20 11 36 20 WSW 1012,6 60 0,0
18.09.2018 14:00:00 26,9 12,5 18 10 31 17 SW 1012,3 60 0,0
18.09.2018 13:00:00 26,0 12,5 17 9 30 16 SSW 1012,2 60 0,0
18.09.2018 12:00:00 25,1 12,3 13 7 26 14 SW 1012,1 60 0,0
18.09.2018 11:00:00 23,7 12,7 16 8 30 16 WSW 1012,2 60 0,0
18.09.2018 10:00:00 21,9 12,3 11 6 22 12 SSW 1012,0 60 0,0
18.09.2018 09:00:00 19,1 11,8 7 4 16 8 S 1011,6 60 0,0
18.09.2018 08:00:00 17,4 11,3 11 6 15 8 S 1011,2 13 0,0
18.09.2018 07:00:00 15,6 10,8 8 5 11 6 SSE 1011,1 0 0,0
18.09.2018 06:00:00 14,7 10,3 8 4 11 6 SSE 1011,3 0 0,0
18.09.2018 05:00:00 13,7 9,3 6 3 9 5 SE 1011,7 0 0,0
18.09.2018 04:00:00 13,3 8,9 5 3 8 4 SSE 1012,2 0 0,0
18.09.2018 03:00:00 13,5 8,9 4 2 11 6 SE 1012,8 0 0,0
18.09.2018 02:00:00 13,4 8,4 4 2 8 4 SE 1013,3 0 0,0
18.09.2018 01:00:00 14,2 8,0 4 2 9 5 SE 1013,8 0 0,0
18.09.2018 00:00:00 13,4 8,5 5 3 7 4 ESE 1014,0 0 0,0
17.09.2018 23:00:00 12,0 8,7 5 3 8 4 E 1014,8 0 0,0
17.09.2018 22:00:00 13,1 9,4 5 3 6 3 E 1015,0 0 0,0
17.09.2018 21:00:00 14,0 10,1 0 0 4 2 N 1015,2 0 0,0
17.09.2018 20:00:00 17,2 11,1 0 0 6 4 N 1015,3 16 0,0
17.09.2018 19:00:00 24,5 8,0 6 3 12 7 SE 1015,6 60 0,0
17.09.2018 18:00:00 25,7 7,1 9 5 14 7 S 1016,2 60 0,0
17.09.2018 17:00:00 25,9 7,6 8 4 19 10 S 1016,8 60 0,0
17.09.2018 16:00:00 25,7 7,9 8 4 17 9 SSE 1017,6 60 0,0
17.09.2018 15:00:00 25,0 8,6 9 5 19 11 S 1018,3 60 0,0
17.09.2018 14:00:00 24,7 9,7 11 6 18 10 S 1018,9 60 0,0
17.09.2018 13:00:00 23,2 10,0 5 3 15 8 SW 1019,5 60 0,0
17.09.2018 12:00:00 21,4 11,0 8 4 16 9 SW 1019,9 60 0,0
17.09.2018 11:00:00 18,2 11,4 8 4 12 6 S 1020,1 60 0,0
17.09.2018 10:00:00 15,0 11,3 6 4 10 5 S 1020,3 60 0,0
17.09.2018 09:00:00 11,6 10,4 4 2 5 3 SE 1020,7 60 0,0
17.09.2018 08:00:00 7,8 7,5 4 2 4 2 E 1020,5 1 0,0
17.09.2018 07:00:00 8,2 8,0 4 2 4 2 E 1020,0 0 0,0
17.09.2018 06:00:00 8,2 8,0 0 0 3 2 N 1020,0 0 0,0
17.09.2018 05:00:00 8,3 8,3 0 0 1 0 N 1020,3 0 0,0
17.09.2018 04:00:00 8,5 8,4 0 0 3 2 N 1020,1 0 0,0
17.09.2018 03:00:00 8,9 8,6 0 0 3 1 N 1020,3 0 0,0
17.09.2018 02:00:00 9,5 9,1 0 0 4 2 N 1020,4 0 0,0
17.09.2018 01:00:00 9,8 9,4 0 0 3 2 N 1020,4 0 0,0
17.09.2018 00:00:00 10,3 9,6 4 2 4 2 ESE 1020,6 0 0,0
16.09.2018 23:00:00 11,3 10,0 0 0 3 2 N 1020,7 0 0,0
16.09.2018 22:00:00 12,5 10,4 0 0 7 4 N 1020,7 0 0,0
16.09.2018 21:00:00 15,1 11,6 0 0 5 3 N 1020,3 0 0,0
16.09.2018 20:00:00 19,3 12,3 4 2 8 4 WNW 1019,9 10 0,0
16.09.2018 19:00:00 21,2 9,0 5 3 15 8 S 1019,6 30 0,0
16.09.2018 18:00:00 23,1 9,0 6 4 16 9 SSW 1019,6 50 0,0
16.09.2018 17:00:00 23,0 8,9 10 5 16 9 S 1020,0 50 0,0
16.09.2018 16:00:00 23,0 8,8 8 4 17 9 S 1020,6 60 0,0
16.09.2018 15:00:00 22,9 9,3 7 4 17 9 SW 1021,0 60 0,0
16.09.2018 14:00:00 22,5 9,9 7 4 22 12 SSW 1022,0 60 0,0
16.09.2018 13:00:00 21,1 9,7 12 7 20 11 S 1022,5 60 0,0
16.09.2018 12:00:00 19,9 11,2 9 5 19 10 S 1022,7 60 0,0
16.09.2018 11:00:00 18,1 11,3 9 5 16 9 S 1023,4 60 0,0
16.09.2018 10:00:00 14,4 10,9 7 4 13 7 S 1023,5 58 0,0
16.09.2018 09:00:00 11,9 10,3 4 2 8 4 SSE 1023,5 57 0,0
16.09.2018 08:00:00 8,7 8,2 4 2 5 3 SSE 1023,2 15 0,0
16.09.2018 07:00:00 8,9 8,4 4 2 6 3 SSE 1023,5 0 0,0
16.09.2018 06:00:00 8,4 8,1 4 2 5 3 SSE 1023,5 0 0,0
16.09.2018 05:00:00 8,4 8,0 4 2 6 3 SE 1023,5 0 0,0
16.09.2018 04:00:00 8,5 8,2 4 2 4 2 SE 1023,9 0 0,0
16.09.2018 03:00:00 8,7 8,6 0 0 3 1 N 1024,5 0 0,0
16.09.2018 02:00:00 8,9 8,9 0 0 3 2 N 1025,2 0 0,0
16.09.2018 01:00:00 9,5 9,3 4 2 3 2 E 1025,7 0 0,0
16.09.2018 00:00:00 10,2 9,7 0 0 3 2 N 1025,7 0 0,0
15.09.2018 23:00:00 10,7 10,1 0 0 3 2 N 1025,8 0 0,0
15.09.2018 22:00:00 11,9 10,9 0 0 3 2 N 1025,8 0 0,0
15.09.2018 21:00:00 13,2 11,1 0 0 3 2 N 1025,3 0 0,0
15.09.2018 20:00:00 15,3 11,6 0 0 6 3 N 1024,8 0 0,0
15.09.2018 19:00:00 18,5 11,5 4 2 9 5 NNW 1024,8 31 0,0
15.09.2018 18:00:00 19,8 11,0 6 4 16 9 WSW 1024,8 60 0,0
15.09.2018 17:00:00 20,3 10,3 11 6 20 11 WSW 1025,1 60 0,0
15.09.2018 16:00:00 18,8 10,3 9 5 18 10 W 1025,2 10 0,0
15.09.2018 15:00:00 18,6 10,6 6 3 23 12 W 1025,4 1 0,0
15.09.2018 14:00:00 19,1 10,1 14 8 25 14 WSW 1025,3 33 0,0
15.09.2018 13:00:00 19,1 10,2 12 6 22 12 W 1025,3 55 0,0
15.09.2018 12:00:00 18,5 10,4 10 5 20 11 W 1025,3 60 0,0
15.09.2018 11:00:00 16,9 11,7 8 4 20 11 W 1025,2 60 0,0
15.09.2018 10:00:00 14,7 11,9 10 5 17 9 WSW 1024,6 60 0,0

tt = Température de l'air
td = dewpoint
ff = Vitesse du vent
fx = gusts
dd = Direction du vent
ppp = reduced air pressure
sd = Ensoleillement
rr = Quantités de précipitations

stations d'obs. à proximité